<?xml version="1.0" encoding="UTF-8" standalone="no" ?>
<gpx xmlns="http://www.topografix.com/GPX/1/1" xmlns:xsi="http://www.w3.org/2001/XMLSchema-instance" xsi:schemaLocation="http://www.topografix.com/GPX/1/1 http://www.topografix.com/GPX/1/1/gpx.xsd" version="1.1" creator="VisuGPX - https://www.visugpx.com">
  <metadata>
    <name>tour denecourt</name>
  </metadata>
  <trk>
    <name><![CDATA[Tracé actuel: 23 MAI 2021 08:49]]></name>
    <trkseg>
      <trkpt lat="48.80008" lon="2.98606">
        <ele>125</ele>
        <time>2021-05-23T06:49:21Z</time>
      </trkpt>
      <trkpt lat="48.80011" lon="2.98623">
        <ele>125</ele>
        <time>2021-05-23T06:49:24Z</time>
      </trkpt>
      <trkpt lat="48.80011" lon="2.98629">
        <ele>125</ele>
        <time>2021-05-23T06:49:25Z</time>
      </trkpt>
      <trkpt lat="48.80012" lon="2.98635">
        <ele>125</ele>
        <time>2021-05-23T06:49:26Z</time>
      </trkpt>
      <trkpt lat="48.80013" lon="2.9864">
        <ele>125</ele>
        <time>2021-05-23T06:49:27Z</time>
      </trkpt>
      <trkpt lat="48.80013" lon="2.98645">
        <ele>125</ele>
        <time>2021-05-23T06:49:28Z</time>
      </trkpt>
      <trkpt lat="48.80019" lon="2.98708">
        <ele>125.5</ele>
        <time>2021-05-23T06:49:40Z</time>
      </trkpt>
      <trkpt lat="48.8003" lon="2.98792">
        <ele>126.5</ele>
        <time>2021-05-23T06:49:55Z</time>
      </trkpt>
      <trkpt lat="48.80045" lon="2.98895">
        <ele>126.7</ele>
        <time>2021-05-23T06:50:13Z</time>
      </trkpt>
      <trkpt lat="48.80049" lon="2.98924">
        <ele>126.6</ele>
        <time>2021-05-23T06:50:18Z</time>
      </trkpt>
      <trkpt lat="48.80055" lon="2.98961">
        <ele>126.5</ele>
        <time>2021-05-23T06:50:24Z</time>
      </trkpt>
      <trkpt lat="48.80059" lon="2.99021">
        <ele>126</ele>
        <time>2021-05-23T06:50:34Z</time>
      </trkpt>
      <trkpt lat="48.80059" lon="2.99049">
        <ele>125.5</ele>
        <time>2021-05-23T06:50:38Z</time>
      </trkpt>
      <trkpt lat="48.80057" lon="2.99063">
        <ele>125.3</ele>
        <time>2021-05-23T06:50:40Z</time>
      </trkpt>
      <trkpt lat="48.80056" lon="2.9907">
        <ele>125.2</ele>
        <time>2021-05-23T06:50:41Z</time>
      </trkpt>
      <trkpt lat="48.80035" lon="2.9916">
        <ele>125.4</ele>
        <time>2021-05-23T06:50:54Z</time>
      </trkpt>
      <trkpt lat="48.80003" lon="2.99289">
        <ele>126</ele>
        <time>2021-05-23T06:51:12Z</time>
      </trkpt>
      <trkpt lat="48.79996" lon="2.99319">
        <ele>126</ele>
        <time>2021-05-23T06:51:16Z</time>
      </trkpt>
      <trkpt lat="48.79994" lon="2.99334">
        <ele>126.1</ele>
        <time>2021-05-23T06:51:18Z</time>
      </trkpt>
      <trkpt lat="48.7999" lon="2.99349">
        <ele>126.3</ele>
        <time>2021-05-23T06:51:20Z</time>
      </trkpt>
      <trkpt lat="48.79985" lon="2.99377">
        <ele>126.6</ele>
        <time>2021-05-23T06:51:24Z</time>
      </trkpt>
      <trkpt lat="48.79976" lon="2.99428">
        <ele>127</ele>
        <time>2021-05-23T06:51:32Z</time>
      </trkpt>
      <trkpt lat="48.7996" lon="2.99505">
        <ele>127</ele>
        <time>2021-05-23T06:51:44Z</time>
      </trkpt>
      <trkpt lat="48.79941" lon="2.99613">
        <ele>126.8</ele>
        <time>2021-05-23T06:51:59Z</time>
      </trkpt>
      <trkpt lat="48.79932" lon="2.99657">
        <ele>127</ele>
        <time>2021-05-23T06:52:06Z</time>
      </trkpt>
      <trkpt lat="48.79931" lon="2.9967">
        <ele>127.1</ele>
        <time>2021-05-23T06:52:08Z</time>
      </trkpt>
      <trkpt lat="48.79927" lon="2.99735">
        <ele>128.5</ele>
        <time>2021-05-23T06:52:21Z</time>
      </trkpt>
      <trkpt lat="48.79909" lon="2.99753">
        <ele>129.2</ele>
        <time>2021-05-23T06:52:28Z</time>
      </trkpt>
      <trkpt lat="48.79895" lon="2.99799">
        <ele>130.3</ele>
        <time>2021-05-23T06:52:42Z</time>
      </trkpt>
      <trkpt lat="48.79895" lon="2.99847">
        <ele>131</ele>
        <time>2021-05-23T06:52:55Z</time>
      </trkpt>
      <trkpt lat="48.79893" lon="2.99905">
        <ele>131.2</ele>
        <time>2021-05-23T06:53:09Z</time>
      </trkpt>
      <trkpt lat="48.79901" lon="3.00005">
        <ele>131.2</ele>
        <time>2021-05-23T06:53:25Z</time>
      </trkpt>
      <trkpt lat="48.79903" lon="3.00036">
        <ele>131.5</ele>
        <time>2021-05-23T06:53:30Z</time>
      </trkpt>
      <trkpt lat="48.79903" lon="3.00042">
        <ele>131.6</ele>
        <time>2021-05-23T06:53:31Z</time>
      </trkpt>
      <trkpt lat="48.79906" lon="3.00124">
        <ele>132.1</ele>
        <time>2021-05-23T06:53:45Z</time>
      </trkpt>
      <trkpt lat="48.7991" lon="3.00195">
        <ele>131.4</ele>
        <time>2021-05-23T06:53:56Z</time>
      </trkpt>
      <trkpt lat="48.79912" lon="3.00215">
        <ele>130.9</ele>
        <time>2021-05-23T06:53:59Z</time>
      </trkpt>
      <trkpt lat="48.79916" lon="3.00327">
        <ele>130</ele>
        <time>2021-05-23T06:54:15Z</time>
      </trkpt>
      <trkpt lat="48.79921" lon="3.00453">
        <ele>128.6</ele>
        <time>2021-05-23T06:54:31Z</time>
      </trkpt>
      <trkpt lat="48.79923" lon="3.0046">
        <ele>128.5</ele>
        <time>2021-05-23T06:54:32Z</time>
      </trkpt>
      <trkpt lat="48.79926" lon="3.00465">
        <ele>128.4</ele>
        <time>2021-05-23T06:54:33Z</time>
      </trkpt>
      <trkpt lat="48.7993" lon="3.0047">
        <ele>128.4</ele>
        <time>2021-05-23T06:54:34Z</time>
      </trkpt>
      <trkpt lat="48.79934" lon="3.00473">
        <ele>128.4</ele>
        <time>2021-05-23T06:54:35Z</time>
      </trkpt>
      <trkpt lat="48.79938" lon="3.00476">
        <ele>128.4</ele>
        <time>2021-05-23T06:54:36Z</time>
      </trkpt>
      <trkpt lat="48.79992" lon="3.00501">
        <ele>128.9</ele>
        <time>2021-05-23T06:54:48Z</time>
      </trkpt>
      <trkpt lat="48.80063" lon="3.00504">
        <ele>128.2</ele>
        <time>2021-05-23T06:55:01Z</time>
      </trkpt>
      <trkpt lat="48.8014" lon="3.00516">
        <ele>124.7</ele>
        <time>2021-05-23T06:55:14Z</time>
      </trkpt>
      <trkpt lat="48.80145" lon="3.00518">
        <ele>124.4</ele>
        <time>2021-05-23T06:55:15Z</time>
      </trkpt>
      <trkpt lat="48.80213" lon="3.00544">
        <ele>121.3</ele>
        <time>2021-05-23T06:55:29Z</time>
      </trkpt>
      <trkpt lat="48.80296" lon="3.00576">
        <ele>118.5</ele>
        <time>2021-05-23T06:55:45Z</time>
      </trkpt>
      <trkpt lat="48.80385" lon="3.0059">
        <ele>116.8</ele>
        <time>2021-05-23T06:56:02Z</time>
      </trkpt>
      <trkpt lat="48.80464" lon="3.0059">
        <ele>114.8</ele>
        <time>2021-05-23T06:56:17Z</time>
      </trkpt>
      <trkpt lat="48.80532" lon="3.00601">
        <ele>112.8</ele>
        <time>2021-05-23T06:56:28Z</time>
      </trkpt>
      <trkpt lat="48.80541" lon="3.00607">
        <ele>112.3</ele>
        <time>2021-05-23T06:56:31Z</time>
      </trkpt>
      <trkpt lat="48.80542" lon="3.00614">
        <ele>112.1</ele>
        <time>2021-05-23T06:56:35Z</time>
      </trkpt>
      <trkpt lat="48.80539" lon="3.00613">
        <ele>112.2</ele>
        <time>2021-05-23T06:56:44Z</time>
      </trkpt>
      <trkpt lat="48.80539" lon="3.00611">
        <ele>112.3</ele>
        <time>2021-05-23T06:56:45Z</time>
      </trkpt>
      <trkpt lat="48.80539" lon="3.00609">
        <ele>112.3</ele>
        <time>2021-05-23T06:56:46Z</time>
      </trkpt>
      <trkpt lat="48.8054" lon="3.00608">
        <ele>112.3</ele>
        <time>2021-05-23T06:56:47Z</time>
      </trkpt>
      <trkpt lat="48.80541" lon="3.00606">
        <ele>112.3</ele>
        <time>2021-05-23T06:56:48Z</time>
      </trkpt>
      <trkpt lat="48.80543" lon="3.00605">
        <ele>112.3</ele>
        <time>2021-05-23T06:56:49Z</time>
      </trkpt>
      <trkpt lat="48.80545" lon="3.00606">
        <ele>112.2</ele>
        <time>2021-05-23T06:56:50Z</time>
      </trkpt>
      <trkpt lat="48.80548" lon="3.00607">
        <ele>112.1</ele>
        <time>2021-05-23T06:56:51Z</time>
      </trkpt>
      <trkpt lat="48.80585" lon="3.00616">
        <ele>110.3</ele>
        <time>2021-05-23T06:57:04Z</time>
      </trkpt>
      <trkpt lat="48.8061" lon="3.0062">
        <ele>109.2</ele>
        <time>2021-05-23T06:57:15Z</time>
      </trkpt>
      <trkpt lat="48.80641" lon="3.00624">
        <ele>108</ele>
        <time>2021-05-23T06:57:26Z</time>
      </trkpt>
      <trkpt lat="48.80669" lon="3.00623">
        <ele>106.9</ele>
        <time>2021-05-23T06:57:35Z</time>
      </trkpt>
      <trkpt lat="48.80685" lon="3.00624">
        <ele>106.2</ele>
        <time>2021-05-23T06:57:40Z</time>
      </trkpt>
      <trkpt lat="48.80688" lon="3.00625">
        <ele>106</ele>
        <time>2021-05-23T06:57:41Z</time>
      </trkpt>
      <trkpt lat="48.8072" lon="3.00624">
        <ele>104.5</ele>
        <time>2021-05-23T06:57:51Z</time>
      </trkpt>
      <trkpt lat="48.8074" lon="3.00622">
        <ele>103.7</ele>
        <time>2021-05-23T06:57:58Z</time>
      </trkpt>
      <trkpt lat="48.80753" lon="3.0062">
        <ele>103.2</ele>
        <time>2021-05-23T06:58:03Z</time>
      </trkpt>
      <trkpt lat="48.80755" lon="3.00619">
        <ele>103.1</ele>
        <time>2021-05-23T06:58:04Z</time>
      </trkpt>
      <trkpt lat="48.80795" lon="3.00602">
        <ele>100.6</ele>
        <time>2021-05-23T06:58:15Z</time>
      </trkpt>
      <trkpt lat="48.808" lon="3.006">
        <ele>100.3</ele>
        <time>2021-05-23T06:58:16Z</time>
      </trkpt>
      <trkpt lat="48.80818" lon="3.00585">
        <ele>98.7</ele>
        <time>2021-05-23T06:58:20Z</time>
      </trkpt>
      <trkpt lat="48.80819" lon="3.00579">
        <ele>98.4</ele>
        <time>2021-05-23T06:58:21Z</time>
      </trkpt>
      <trkpt lat="48.80818" lon="3.00573">
        <ele>98.2</ele>
        <time>2021-05-23T06:58:22Z</time>
      </trkpt>
      <trkpt lat="48.80818" lon="3.00569">
        <ele>98.1</ele>
        <time>2021-05-23T06:58:23Z</time>
      </trkpt>
      <trkpt lat="48.80817" lon="3.00566">
        <ele>98</ele>
        <time>2021-05-23T06:58:24Z</time>
      </trkpt>
      <trkpt lat="48.80817" lon="3.0056">
        <ele>97.8</ele>
        <time>2021-05-23T06:58:26Z</time>
      </trkpt>
      <trkpt lat="48.80816" lon="3.00557">
        <ele>97.8</ele>
        <time>2021-05-23T06:58:28Z</time>
      </trkpt>
      <trkpt lat="48.80815" lon="3.00555">
        <ele>97.9</ele>
        <time>2021-05-23T06:58:29Z</time>
      </trkpt>
      <trkpt lat="48.80805" lon="3.0054">
        <ele>98.7</ele>
        <time>2021-05-23T06:58:36Z</time>
      </trkpt>
      <trkpt lat="48.80803" lon="3.00532">
        <ele>98.7</ele>
        <time>2021-05-23T06:58:39Z</time>
      </trkpt>
      <trkpt lat="48.80801" lon="3.0053">
        <ele>98.9</ele>
        <time>2021-05-23T06:58:40Z</time>
      </trkpt>
      <trkpt lat="48.8078" lon="3.00509">
        <ele>101.4</ele>
        <time>2021-05-23T06:58:50Z</time>
      </trkpt>
      <trkpt lat="48.80765" lon="3.00489">
        <ele>103.6</ele>
        <time>2021-05-23T06:58:59Z</time>
      </trkpt>
      <trkpt lat="48.80766" lon="3.00486">
        <ele>103.4</ele>
        <time>2021-05-23T06:59:00Z</time>
      </trkpt>
      <trkpt lat="48.8077" lon="3.00484">
        <ele>102.8</ele>
        <time>2021-05-23T06:59:03Z</time>
      </trkpt>
      <trkpt lat="48.8078" lon="3.00498">
        <ele>101.3</ele>
        <time>2021-05-23T06:59:09Z</time>
      </trkpt>
      <trkpt lat="48.808" lon="3.00517">
        <ele>98.7</ele>
        <time>2021-05-23T06:59:16Z</time>
      </trkpt>
      <trkpt lat="48.8081" lon="3.00493">
        <ele>96.5</ele>
        <time>2021-05-23T06:59:24Z</time>
      </trkpt>
      <trkpt lat="48.80806" lon="3.00457">
        <ele>96.5</ele>
        <time>2021-05-23T06:59:31Z</time>
      </trkpt>
      <trkpt lat="48.80804" lon="3.00453">
        <ele>96.8</ele>
        <time>2021-05-23T06:59:37Z</time>
      </trkpt>
      <trkpt lat="48.80806" lon="3.00456">
        <ele>96.6</ele>
        <time>2021-05-23T06:59:39Z</time>
      </trkpt>
      <trkpt lat="48.80806" lon="3.00457">
        <ele>96.5</ele>
        <time>2021-05-23T06:59:40Z</time>
      </trkpt>
      <trkpt lat="48.80807" lon="3.0046">
        <ele>96.5</ele>
        <time>2021-05-23T06:59:41Z</time>
      </trkpt>
      <trkpt lat="48.80807" lon="3.00463">
        <ele>96.5</ele>
        <time>2021-05-23T06:59:42Z</time>
      </trkpt>
      <trkpt lat="48.80807" lon="3.00467">
        <ele>96.5</ele>
        <time>2021-05-23T06:59:43Z</time>
      </trkpt>
      <trkpt lat="48.80807" lon="3.00471">
        <ele>96.6</ele>
        <time>2021-05-23T06:59:44Z</time>
      </trkpt>
      <trkpt lat="48.8081" lon="3.00508">
        <ele>96.9</ele>
        <time>2021-05-23T06:59:54Z</time>
      </trkpt>
      <trkpt lat="48.80811" lon="3.00512">
        <ele>96.8</ele>
        <time>2021-05-23T06:59:55Z</time>
      </trkpt>
      <trkpt lat="48.80813" lon="3.00515">
        <ele>96.8</ele>
        <time>2021-05-23T06:59:56Z</time>
      </trkpt>
      <trkpt lat="48.80815" lon="3.00519">
        <ele>96.6</ele>
        <time>2021-05-23T06:59:57Z</time>
      </trkpt>
      <trkpt lat="48.80817" lon="3.00521">
        <ele>96.4</ele>
        <time>2021-05-23T06:59:58Z</time>
      </trkpt>
      <trkpt lat="48.80819" lon="3.00524">
        <ele>96.1</ele>
        <time>2021-05-23T06:59:59Z</time>
      </trkpt>
      <trkpt lat="48.80823" lon="3.00526">
        <ele>95.7</ele>
        <time>2021-05-23T07:00:00Z</time>
      </trkpt>
      <trkpt lat="48.80828" lon="3.0053">
        <ele>95.2</ele>
        <time>2021-05-23T07:00:01Z</time>
      </trkpt>
      <trkpt lat="48.80862" lon="3.00543">
        <ele>92.8</ele>
        <time>2021-05-23T07:00:07Z</time>
      </trkpt>
      <trkpt lat="48.80866" lon="3.00542">
        <ele>92.4</ele>
        <time>2021-05-23T07:00:08Z</time>
      </trkpt>
      <trkpt lat="48.8087" lon="3.00539">
        <ele>92</ele>
        <time>2021-05-23T07:00:09Z</time>
      </trkpt>
      <trkpt lat="48.80872" lon="3.00533">
        <ele>91.7</ele>
        <time>2021-05-23T07:00:10Z</time>
      </trkpt>
      <trkpt lat="48.80873" lon="3.00527">
        <ele>91.4</ele>
        <time>2021-05-23T07:00:11Z</time>
      </trkpt>
      <trkpt lat="48.80874" lon="3.00522">
        <ele>91.3</ele>
        <time>2021-05-23T07:00:12Z</time>
      </trkpt>
      <trkpt lat="48.80873" lon="3.00517">
        <ele>91.2</ele>
        <time>2021-05-23T07:00:13Z</time>
      </trkpt>
      <trkpt lat="48.80872" lon="3.00513">
        <ele>91.1</ele>
        <time>2021-05-23T07:00:14Z</time>
      </trkpt>
      <trkpt lat="48.80872" lon="3.0051">
        <ele>91</ele>
        <time>2021-05-23T07:00:15Z</time>
      </trkpt>
      <trkpt lat="48.80873" lon="3.00508">
        <ele>90.9</ele>
        <time>2021-05-23T07:00:16Z</time>
      </trkpt>
      <trkpt lat="48.80874" lon="3.00505">
        <ele>90.7</ele>
        <time>2021-05-23T07:00:17Z</time>
      </trkpt>
      <trkpt lat="48.80876" lon="3.00502">
        <ele>90.5</ele>
        <time>2021-05-23T07:00:18Z</time>
      </trkpt>
      <trkpt lat="48.80878" lon="3.00496">
        <ele>90.2</ele>
        <time>2021-05-23T07:00:19Z</time>
      </trkpt>
      <trkpt lat="48.8088" lon="3.0049">
        <ele>90</ele>
        <time>2021-05-23T07:00:20Z</time>
      </trkpt>
      <trkpt lat="48.80912" lon="3.00381">
        <ele>85</ele>
        <time>2021-05-23T07:00:33Z</time>
      </trkpt>
      <trkpt lat="48.80939" lon="3.00275">
        <ele>79.5</ele>
        <time>2021-05-23T07:00:44Z</time>
      </trkpt>
      <trkpt lat="48.80948" lon="3.00214">
        <ele>77</ele>
        <time>2021-05-23T07:00:50Z</time>
      </trkpt>
      <trkpt lat="48.80943" lon="3.00105">
        <ele>73.1</ele>
        <time>2021-05-23T07:01:01Z</time>
      </trkpt>
      <trkpt lat="48.80944" lon="3.00094">
        <ele>72.5</ele>
        <time>2021-05-23T07:01:02Z</time>
      </trkpt>
      <trkpt lat="48.8095" lon="3.00057">
        <ele>71.2</ele>
        <time>2021-05-23T07:01:05Z</time>
      </trkpt>
      <trkpt lat="48.80967" lon="2.9999">
        <ele>69.6</ele>
        <time>2021-05-23T07:01:11Z</time>
      </trkpt>
      <trkpt lat="48.80972" lon="2.99971">
        <ele>69.3</ele>
        <time>2021-05-23T07:01:13Z</time>
      </trkpt>
      <trkpt lat="48.80975" lon="2.99962">
        <ele>69.2</ele>
        <time>2021-05-23T07:01:14Z</time>
      </trkpt>
      <trkpt lat="48.80992" lon="2.99888">
        <ele>67.7</ele>
        <time>2021-05-23T07:01:23Z</time>
      </trkpt>
      <trkpt lat="48.80995" lon="2.99881">
        <ele>67.4</ele>
        <time>2021-05-23T07:01:24Z</time>
      </trkpt>
      <trkpt lat="48.81033" lon="2.99786">
        <ele>65.2</ele>
        <time>2021-05-23T07:01:37Z</time>
      </trkpt>
      <trkpt lat="48.81037" lon="2.9977">
        <ele>64.9</ele>
        <time>2021-05-23T07:01:39Z</time>
      </trkpt>
      <trkpt lat="48.81038" lon="2.99761">
        <ele>64.8</ele>
        <time>2021-05-23T07:01:40Z</time>
      </trkpt>
      <trkpt lat="48.81039" lon="2.99745">
        <ele>64.6</ele>
        <time>2021-05-23T07:01:42Z</time>
      </trkpt>
      <trkpt lat="48.8104" lon="2.99672">
        <ele>64.6</ele>
        <time>2021-05-23T07:01:51Z</time>
      </trkpt>
      <trkpt lat="48.81041" lon="2.99657">
        <ele>64.6</ele>
        <time>2021-05-23T07:01:53Z</time>
      </trkpt>
      <trkpt lat="48.81042" lon="2.9965">
        <ele>64.6</ele>
        <time>2021-05-23T07:01:54Z</time>
      </trkpt>
      <trkpt lat="48.81064" lon="2.99542">
        <ele>63.9</ele>
        <time>2021-05-23T07:02:09Z</time>
      </trkpt>
      <trkpt lat="48.81073" lon="2.99483">
        <ele>63.9</ele>
        <time>2021-05-23T07:02:17Z</time>
      </trkpt>
      <trkpt lat="48.81106" lon="2.99373">
        <ele>65.4</ele>
        <time>2021-05-23T07:02:32Z</time>
      </trkpt>
      <trkpt lat="48.81131" lon="2.99305">
        <ele>65.3</ele>
        <time>2021-05-23T07:02:42Z</time>
      </trkpt>
      <trkpt lat="48.81133" lon="2.99298">
        <ele>65.2</ele>
        <time>2021-05-23T07:02:43Z</time>
      </trkpt>
      <trkpt lat="48.8114" lon="2.9927">
        <ele>64.8</ele>
        <time>2021-05-23T07:02:47Z</time>
      </trkpt>
      <trkpt lat="48.81163" lon="2.99192">
        <ele>64</ele>
        <time>2021-05-23T07:02:58Z</time>
      </trkpt>
      <trkpt lat="48.81166" lon="2.99186">
        <ele>63.9</ele>
        <time>2021-05-23T07:02:59Z</time>
      </trkpt>
      <trkpt lat="48.81167" lon="2.9918">
        <ele>63.8</ele>
        <time>2021-05-23T07:03:00Z</time>
      </trkpt>
      <trkpt lat="48.81166" lon="2.99138">
        <ele>64.4</ele>
        <time>2021-05-23T07:03:09Z</time>
      </trkpt>
      <trkpt lat="48.81168" lon="2.99126">
        <ele>64.5</ele>
        <time>2021-05-23T07:03:11Z</time>
      </trkpt>
      <trkpt lat="48.81169" lon="2.99121">
        <ele>64.5</ele>
        <time>2021-05-23T07:03:12Z</time>
      </trkpt>
      <trkpt lat="48.81199" lon="2.99025">
        <ele>64.6</ele>
        <time>2021-05-23T07:03:27Z</time>
      </trkpt>
    </trkseg>
  </trk>
</gpx>